Latest Coastal Weather Observations for Weipa

IDQ60701

Issued at 5:51 am EST Monday 31 August 2015 (issued every 10 minutes, with the page automatically refreshed every 10 minutes)

About coastal observations | Map of coastal stations | Coastal observations for QLD | Marine services | Other Formats
Station Details ID: 027045 Name: WEIPA AERO Lat: -12.68 Lon: 141.92 Height: 17.96 m
Data from the previous 72 hours. | See also: Recent months at Weipa
Date/Time
EST
Temp

°C
Wind Pressure Rain
since 9am
mm
Weather Cloud Vis
km
Sea
Height
m
Swell
Dir
 
Speed
knots
Gust
knots
hPa Trend Height
m
Period
s
Dir
31/05:30am 19.3 ESE 1 2 1013.9 - 0.0 - - 10 - - - -
31/05:00am 19.7 ESE 1 2 1013.8 - 0.0 - - 10 - - - -
31/04:30am 20.0 SE 2 2 1013.8 - 0.0 - - 10 - - - -
31/04:00am 20.2 SE 2 2 1013.7 - 0.0 - - 10 - - - -
31/03:30am 20.2 CALM 0 1 1013.8 - 0.0 - - 10 - - - -
31/03:00am 20.2 ENE 1 1 1013.9 - 0.0 - - 10 - - - -
31/02:30am 20.7 E 1 1 1014.2 - 0.0 - - 10 - - - -
31/02:00am 20.8 CALM 0 1 1014.5 - 0.0 - - 10 - - - -
31/01:30am 21.2 CALM 0 1 1014.8 - 0.0 - - 10 - - - -
31/01:00am 21.5 CALM 0 1 1014.9 - 0.0 - - 10 - - - -
31/12:30am 21.6 CALM 0 1 1015.2 - 0.0 - - 10 - - - -
31/12:00am 21.6 NNW 1 3 1015.1 - 0.0 - - 10 - - - -
 
Date/Time
EST
Temp

°C
Wind Pressure Rain
since 9am
mm
Weather Cloud Vis
km
Sea
Height
m
Swell
Dir
 
Speed
knots
Gust
knots
hPa Trend Height
m
Period
s
Dir
30/11:30pm 21.9 CALM 0 1 1015.5 - 0.0 - - 10 - - - -
30/11:00pm 22.6 CALM 0 0 1015.4 - 0.0 - - 10 - - - -
30/10:30pm 23.4 CALM 0 0 1015.4 - 0.0 - - 10 - - - -
30/10:00pm 24.3 SW 2 3 1015.2 - 0.0 - - 10 - - - -
30/09:30pm 24.7 S 1 3 1015.1 - 0.0 - Partly cloudy 10 - - - -
30/09:00pm 24.9 SW 1 3 1014.7 - 0.0 - Mostly clear 10 - - - -
30/08:30pm 24.9 W 2 5 1014.5 - 0.0 - Partly cloudy 10 - - - -
30/08:00pm 24.8 W 3 5 1014.1 - 0.0 - Partly cloudy 10 - - - -
30/07:30pm 25.2 W 4 8 1013.7 - 0.0 - Partly cloudy 10 - - - -
30/07:00pm 25.4 W 5 10 1013.1 - 0.0 - - 10 - - - -
30/06:30pm 25.8 W 6 11 1012.7 - 0.0 - - 10 - - - -
30/06:00pm 26.8 W 6 11 1012.3 - 0.0 - - 10 - - - -
30/05:30pm 27.7 W 7 12 1012.2 - 0.0 - - 10 - - - -
30/05:00pm 28.3 WSW 7 13 1011.9 - 0.0 - - 10 - - - -
30/04:30pm 29.5 WSW 7 13 1011.9 - 0.0 - - 10 - - - -
30/04:00pm 29.7 W 10 13 1011.7 - 0.0 - - 10 - - - -
30/03:30pm 30.3 WSW 8 12 1011.8 - 0.0 - - 10 - - - -
30/03:00pm 30.7 WSW 9 16 1011.9 - 0.0 - Mostly clear 10 - - - -
30/02:30pm 31.8 WSW 7 16 1012.3 - 0.0 - Partly cloudy 10 - - - -
30/02:19pm 32.8 SW 6 10 1012.4 - 0.0 - Partly cloudy 10 - - - -
30/02:02pm 31.6 SSW 5 9 1012.6 - 0.0 - Partly cloudy 6 - - - -
30/02:00pm 31.8 SSW 5 10 1012.7 - 0.0 - Partly cloudy 8 - - - -
30/01:30pm 31.1 SW 4 8 1013.3 - 0.0 - Partly cloudy 10 - - - -
30/01:00pm 31.3 SSW 5 9 1013.7 - 0.0 - Partly cloudy 10 - - - -
30/12:30pm 30.8 E 3 8 1014.4 - 0.0 - Partly cloudy 10 - - - -
30/12:00pm 29.8 SE 7 12 1014.9 - 0.0 - - 10 - - - -
30/11:30am 30.0 ESE 4 9 1015.8 - 0.0 - Partly cloudy 10 - - - -
30/11:00am 28.7 ESE 4 9 1016.4 - 0.0 - - 10 - - - -
30/10:30am 27.6 ESE 6 10 1016.8 - 0.0 - - 10 - - - -
30/10:00am 26.7 ESE 8 12 1016.9 - 0.0 - - 10 - - - -
30/09:30am 26.2 E 7 11 1016.9 - 0.0 - - 10 - - - -
30/09:00am 24.9 ESE 5 9 1016.7 R 0.0 Haze Mostly clear 30 - - - -
30/08:30am 23.3 SSE 4 5 1016.7 - 0.0 - - 10 - - - -
30/08:00am 22.1 SE 3 5 1016.2 - 0.0 - - 10 - - - -
30/07:30am 20.6 SE 1 2 1015.9 - 0.0 - - 10 - - - -
30/07:00am 18.8 ESE 1 2 1015.6 - 0.0 - - 10 - - - -
30/06:30am 18.3 ESE 1 1 1015.3 - 0.0 - - 10 - - - -
30/06:00am 18.7 CALM 0 1 1015.0 - 0.0 - - 10 - - - -
30/05:30am 18.5 ESE 2 3 1015.0 - 0.0 - - 10 - - - -
30/05:00am 18.6 ESE 1 1 1014.8 - 0.0 - - 10 - - - -
30/04:30am 18.6 CALM 0 1 1014.7 - 0.0 - - 10 - - - -
30/04:00am 19.0 ESE 1 2 1014.7 - 0.0 - - 10 - - - -
30/03:30am 19.2 SE 1 2 1014.8 - 0.0 - - 10 - - - -
30/03:00am 19.3 CALM 0 1 1014.8 - 0.0 - - 10 - - - -
30/02:30am 19.2 CALM 0 0 1015.0 - 0.0 - - 10 - - - -
30/02:00am 19.5 CALM 0 0 1015.2 - 0.0 - - 10 - - - -
30/01:30am 19.8 CALM 0 0 1015.5 - 0.0 - - 10 - - - -
30/01:00am 20.3 CALM 0 0 1015.6 - 0.0 - - 10 - - - -
30/12:30am 20.7 CALM 0 0 1015.7 - 0.0 - - 10 - - - -
30/12:00am 21.2 CALM 0 1 1015.7 - 0.0 - - 10 - - - -
 
Date/Time
EST
Temp

°C
Wind Pressure Rain
since 9am
mm
Weather Cloud Vis
km
Sea
Height
m
Swell
Dir
 
Speed
knots
Gust
knots
hPa Trend Height
m
Period
s
Dir
29/11:30pm 22.4 E 1 2 1016.0 - 0.0 - - 10 - - - -
29/11:00pm 23.1 E 3 5 1015.9 - 0.0 - - 10 - - - -
29/10:30pm 23.9 E 3 7 1015.8 - 0.0 - - 10 - - - -
29/10:00pm 24.5 E 5 7 1015.7 - 0.0 - - 10 - - - -
29/09:30pm 25.1 E 5 9 1015.5 - 0.0 - - 10 - - - -
29/09:00pm 25.7 E 3 7 1015.2 - 0.0 - - 10 - - - -
29/08:30pm 26.5 E 7 11 1015.0 - 0.0 - - 10 - - - -
29/08:00pm 25.4 NNE 3 5 1014.5 - 0.0 - - 10 - - - -
29/07:30pm 25.5 NW 1 3 1013.8 - 0.0 - - 10 - - - -
29/07:00pm 26.2 WNW 2 4 1013.3 - 0.0 - - 10 - - - -
29/06:30pm 27.2 WNW 2 3 1012.8 - 0.0 - - 10 - - - -
29/06:00pm 28.4 W 2 3 1012.3 - 0.0 - - 10 - - - -
29/05:30pm 29.6 WNW 3 7 1012.0 - 0.0 - Partly cloudy 10 - - - -
29/05:00pm 29.6 WNW 4 8 1011.8 - 0.0 - - 10 - - - -
29/04:30pm 33.0 E 6 12 1011.7 - 0.0 - Partly cloudy 10 - - - -
29/04:00pm 33.0 ESE 8 14 1011.6 - 0.0 - Partly cloudy 10 - - - -
29/03:30pm 33.7 E 10 18 1011.7 - 0.0 - Partly cloudy 10 - - - -
29/03:00pm 33.3 E 8 11 1012.1 - 0.0 - Mostly clear 10 - - - -
29/02:30pm 32.7 ESE 12 16 1012.6 - 0.0 - Partly cloudy 10 - - - -
29/02:00pm 32.7 ESE 9 16 1013.2 - 0.0 - Partly cloudy 10 - - - -
29/01:30pm 31.6 ENE 7 13 1013.9 - 0.0 - Partly cloudy 10 - - - -
29/01:00pm 30.9 ESE 8 17 1014.5 - 0.0 - Partly cloudy 10 - - - -
29/12:30pm 31.5 ESE 12 19 1015.1 - 0.0 - - 10 - - - -
29/12:00pm 30.2 E 10 15 1015.4 - 0.0 - Partly cloudy 10 - - - -
29/11:30am 30.3 E 11 20 1016.2 - 0.0 - Partly cloudy 10 - - - -
29/11:00am 28.6 ESE 11 16 1016.7 - 0.0 - Partly cloudy 10 - - - -
29/10:30am 27.7 ESE 10 16 1017.1 - 0.0 - Partly cloudy 10 - - - -
29/10:00am 26.3 E 11 16 1017.4 - 0.0 - Partly cloudy 10 - - - -
29/09:30am 25.7 SE 8 13 1017.5 - 0.0 - - 10 - - - -
29/09:00am 24.2 SE 6 10 1017.4 - 0.0 - Mostly clear 10 - - - -
29/08:30am 23.2 SSE 6 9 1017.2 - 0.0 - - 10 - - - -
29/08:00am 21.9 SSE 5 8 1016.9 - 0.0 - - 10 - - - -
29/07:30am 20.6 SSE 2 4 1016.6 - 0.0 - - 10 - - - -
29/07:00am 19.5 SSE 2 4 1016.3 - 0.0 - - 10 - - - -
29/06:30am 19.6 SSE 2 3 1016.0 - 0.0 - - 10 - - - -
29/06:00am 19.8 SSE 2 4 1015.6 - 0.0 - - 10 - - - -
29/05:30am 20.0 S 2 3 1015.5 - 0.0 - - 10 - - - -
29/05:00am 20.2 S 2 4 1015.3 - 0.0 - - 10 - - - -
29/04:30am 20.4 S 2 4 1015.2 - 0.0 - - 10 - - - -
29/04:00am 20.5 S 3 5 1015.3 - 0.0 - - 10 - - - -
29/03:30am 20.5 S 3 6 1015.2 - 0.0 - - 10 - - - -
29/03:00am 20.6 S 3 6 1014.9 - 0.0 - - 10 - - - -
29/02:30am 21.0 SSE 3 4 1014.9 - 0.0 - - 10 - - - -
29/02:00am 21.4 E 5 7 1015.1 - 0.0 - - 10 - - - -
29/01:30am 21.6 E 5 7 1015.3 - 0.0 - - 10 - - - -
29/01:00am 21.9 E 4 7 1015.6 - 0.0 - - 10 - - - -
29/12:30am 22.0 E 3 4 1015.9 - 0.0 - - 10 - - - -
29/12:00am 22.7 E 4 5 1016.0 - 0.0 - - 10 - - - -
 
Date/Time
EST
Temp

°C
Wind Pressure Rain
since 9am
mm
Weather Cloud Vis
km
Sea
Height
m
Swell
Dir
 
Speed
knots
Gust
knots
hPa Trend Height
m
Period
s
Dir
28/11:30pm 23.2 E 4 6 1016.2 - 0.0 - - 10 - - - -
28/11:00pm 23.7 E 6 8 1016.2 - 0.0 - - 10 - - - -
28/10:30pm 24.2 E 7 10 1016.2 - 0.0 - - 10 - - - -
28/10:00pm 24.6 E 7 11 1016.0 - 0.0 - - 10 - - - -
28/09:30pm 25.1 E 7 12 1016.0 - 0.0 - - 10 - - - -
28/09:00pm 25.6 E 8 11 1015.6 - 0.0 - - 10 - - - -
28/08:30pm 26.2 E 8 12 1015.3 - 0.0 - - 10 - - - -
28/08:00pm 26.8 E 9 13 1014.7 - 0.0 - - 10 - - - -
28/07:30pm 27.4 E 9 14 1014.1 - 0.0 - - 10 - - - -
28/07:00pm 28.1 E 8 12 1013.6 - 0.0 - - 10 - - - -
28/06:30pm 28.9 E 8 14 1012.9 - 0.0 - - 10 - - - -
28/06:00pm 30.0 E 9 15 1012.4 - 0.0 - - 10 - - - -
28/05:30pm 30.9 E 9 14 1012.0 - 0.0 - - 10 - - - -
28/05:00pm 31.7 E 12 17 1011.8 - 0.0 - - 10 - - - -
28/04:30pm 31.7 E 11 18 1011.7 - 0.0 - - 10 - - - -
28/04:00pm 32.2 E 12 18 1011.6 - 0.0 - - 10 - - - -
28/03:30pm 32.2 E 12 18 1011.6 - 0.0 - - 10 - - - -
28/03:00pm 32.6 E 14 21 1011.7 - 0.0 - Mostly clear 10 - - - -
28/02:30pm 32.8 E 12 22 1012.1 - 0.0 - Partly cloudy 10 - - - -
28/02:00pm 32.6 E 12 22 1012.5 - 0.0 - Partly cloudy 10 - - - -
28/01:30pm 32.3 ESE 10 20 1013.1 - 0.0 - Partly cloudy 10 - - - -
28/01:00pm 31.9 ESE 13 22 1013.8 - 0.0 - Partly cloudy 10 - - - -
28/12:30pm 30.9 ESE 11 17 1014.5 - 0.0 - Partly cloudy 10 - - - -
28/12:00pm 30.5 E 12 17 1015.0 - 0.0 - - 10 - - - -
28/11:30am 29.6 E 12 22 1015.6 - 0.0 - Partly cloudy 10 - - - -
28/11:00am 29.7 ESE 13 17 1015.9 - 0.0 - - 10 - - - -
28/10:30am 28.6 ESE 13 21 1016.1 - 0.0 - - 10 - - - -
28/10:00am 27.0 ESE 11 19 1016.3 - 0.0 - - 10 - - - -
28/09:30am 25.9 E 13 18 1016.3 - 0.0 - - 10 - - - -
28/09:00am 25.1 ESE 11 15 1016.3 F 0.0 Haze Clear 30 - - - -
28/08:30am 23.9 SE 6 10 1016.4 - 0.0 - - 10 - - - -
28/08:00am 21.5 SSE 4 6 1016.4 - 0.0 - - 10 - - - -
28/07:30am 20.3 SSE 2 4 1016.1 - 0.0 - - 10 - - - -
28/07:00am 18.6 SSE 2 3 1015.7 - 0.0 - - 10 - - - -
28/06:30am 18.4 SSE 2 3 1015.4 - 0.0 - - 10 - - - -
28/06:00am 18.5 SSE 2 2 1015.2 - 0.0 - - 10 - - - -

Other Formats:

Comma delimited format used in spreadsheet applications
http://www.bom.gov.au/fwo/IDQ60701/IDQ60701.94170.axf

JavaScript Object Notation format (JSON) in row-major order
http://www.bom.gov.au/fwo/IDQ60701/IDQ60701.94170.json